createdAt,value
2023-03-27T00:01:19.218Z,2.33
2023-03-27T00:03:49.710Z,2.47
2023-03-27T00:06:19.678Z,2.15
2023-03-27T00:08:50.530Z,2.58
2023-03-27T00:11:19.891Z,2.22
2023-03-27T00:13:54.162Z,2.33
2023-03-27T00:16:23.541Z,2.10
2023-03-27T00:18:52.801Z,2.28
2023-03-27T00:21:22.323Z,2.08
2023-03-27T00:23:51.296Z,2.25
2023-03-27T00:26:21.360Z,2.28
2023-03-27T00:28:51.446Z,2.20
2023-03-27T00:31:21.357Z,2.47
2023-03-27T00:33:49.696Z,2.92
2023-03-27T00:36:18.007Z,2.30
2023-03-27T00:38:46.789Z,2.17
2023-03-27T00:41:15.199Z,2.03
2023-03-27T00:43:44.777Z,2.20
2023-03-27T00:46:32.334Z,2.50
2023-03-27T00:49:04.048Z,1.67
2023-03-27T00:51:32.921Z,1.88
2023-03-27T00:54:01.869Z,2.40
2023-03-27T00:56:30.646Z,1.98
2023-03-27T00:59:03.314Z,2.45
2023-03-27T01:01:33.592Z,1.58
2023-03-27T01:04:05.579Z,1.90
2023-03-27T01:06:33.998Z,2.25
2023-03-27T01:09:02.198Z,2.30
2023-03-27T01:11:45.879Z,2.13
2023-03-27T01:14:22.349Z,1.83
2023-03-27T01:17:06.453Z,1.70
2023-03-27T01:20:02.624Z,2.15
2023-03-27T01:23:04.873Z,1.92
2023-03-27T01:26:01.238Z,2.17
2023-03-27T01:28:39.853Z,1.50
2023-03-27T01:31:25.476Z,2.05
2023-03-27T01:34:13.032Z,1.77
2023-03-27T01:37:09.577Z,1.52
2023-03-27T01:39:48.887Z,1.55
2023-03-27T01:42:23.439Z,1.85
2023-03-27T01:44:58.729Z,1.55
2023-03-27T01:47:36.416Z,1.90
2023-03-27T01:50:11.720Z,1.40
2023-03-27T01:52:45.198Z,1.30
2023-03-27T01:55:19.190Z,1.60
2023-03-27T01:58:00.430Z,2.00
2023-03-27T02:00:50.853Z,1.27
2023-03-27T02:03:23.571Z,1.35
2023-03-27T02:05:56.365Z,1.50
2023-03-27T02:08:31.658Z,1.55
2023-03-27T02:11:11.715Z,1.27
2023-03-27T02:13:44.556Z,1.30
2023-03-27T02:16:19.251Z,1.40
2023-03-27T02:18:56.552Z,1.58
2023-03-27T02:21:25.448Z,1.85
2023-03-27T02:23:54.086Z,1.50
2023-03-27T02:26:25.258Z,1.48
2023-03-27T02:29:07.779Z,1.73
2023-03-27T02:31:47.234Z,1.90
2023-03-27T02:34:41.478Z,2.00
2023-03-27T02:37:21.410Z,1.58
2023-03-27T02:40:18.719Z,1.40
2023-03-27T02:42:59.467Z,1.50
2023-03-27T02:45:36.964Z,1.70
2023-03-27T02:48:10.734Z,1.52
2023-03-27T02:50:43.211Z,1.60
2023-03-27T02:53:18.388Z,2.00
2023-03-27T02:55:50.980Z,1.63
2023-03-27T02:58:26.955Z,1.25
2023-03-27T03:01:02.058Z,1.80
2023-03-27T03:03:39.939Z,1.98
2023-03-27T03:06:19.138Z,1.52
2023-03-27T03:08:47.734Z,1.60
2023-03-27T03:11:16.067Z,1.90
2023-03-27T03:13:45.803Z,2.03
2023-03-27T03:16:14.055Z,2.05
2023-03-27T03:18:42.510Z,2.13
2023-03-27T03:21:10.672Z,1.70
2023-03-27T03:23:39.278Z,1.83
2023-03-27T03:26:08.089Z,1.98
2023-03-27T03:29:00.707Z,1.48
2023-03-27T03:31:43.993Z,1.70
2023-03-27T03:34:13.783Z,1.27
2023-03-27T03:36:42.984Z,1.50
2023-03-27T03:39:12.488Z,1.60
2023-03-27T03:41:40.926Z,1.60
2023-03-27T03:44:11.001Z,2.13
2023-03-27T03:46:40.877Z,1.77
2023-03-27T03:49:10.504Z,1.83
2023-03-27T03:51:39.042Z,1.38
2023-03-27T03:54:18.904Z,1.50
2023-03-27T03:56:50.662Z,1.05
2023-03-27T03:59:21.389Z,1.50
2023-03-27T04:02:12.062Z,1.88
2023-03-27T04:04:47.660Z,1.50
2023-03-27T04:07:24.404Z,1.25
2023-03-27T04:09:57.113Z,1.33
2023-03-27T04:12:29.135Z,1.58
2023-03-27T04:15:02.635Z,1.40
2023-03-27T04:17:50.893Z,1.75
2023-03-27T04:20:19.525Z,1.52
2023-03-27T04:22:52.561Z,1.30
2023-03-27T04:25:24.695Z,1.50
2023-03-27T04:27:53.836Z,1.40
2023-03-27T04:30:28.052Z,1.60
2023-03-27T04:33:19.313Z,1.83
2023-03-27T04:36:08.733Z,1.48
2023-03-27T04:38:47.866Z,1.30
2023-03-27T04:41:18.548Z,1.50
2023-03-27T04:43:47.160Z,1.08
2023-03-27T04:46:19.014Z,1.77
2023-03-27T04:48:52.579Z,1.90
2023-03-27T04:51:41.825Z,1.40
2023-03-27T04:54:13.652Z,1.48
2023-03-27T04:56:46.607Z,1.20
2023-03-27T04:59:15.719Z,1.30
2023-03-27T05:01:47.839Z,1.90
2023-03-27T05:04:27.497Z,2.17
2023-03-27T05:07:16.233Z,2.10
2023-03-27T05:09:44.575Z,1.55
2023-03-27T05:12:13.059Z,1.30
2023-03-27T05:14:49.580Z,1.52
2023-03-27T05:17:41.756Z,1.20
2023-03-27T05:20:14.400Z,1.45
2023-03-27T05:22:43.824Z,1.35
2023-03-27T05:25:25.783Z,1.85
2023-03-27T05:27:55.280Z,1.60
2023-03-27T05:30:27.370Z,1.85
2023-03-27T05:33:13.876Z,1.35
2023-03-27T05:35:43.223Z,1.83
2023-03-27T05:38:13.294Z,1.40
2023-03-27T05:41:02.237Z,1.60
2023-03-27T05:43:32.869Z,1.40
2023-03-27T05:46:13.577Z,2.45
2023-03-27T05:48:55.834Z,2.15
2023-03-27T05:51:24.925Z,1.35
2023-03-27T05:53:53.475Z,1.70
2023-03-27T05:56:25.702Z,2.22
2023-03-27T05:58:57.401Z,1.60
2023-03-27T06:01:27.885Z,1.35
2023-03-27T06:04:00.553Z,1.38
2023-03-27T06:06:37.178Z,1.80
2023-03-27T06:09:06.196Z,1.80
2023-03-27T06:11:35.524Z,1.73
2023-03-27T06:14:04.210Z,1.40
2023-03-27T06:16:48.676Z,1.60
2023-03-27T06:19:38.214Z,1.35
2023-03-27T06:22:07.319Z,1.33
2023-03-27T06:24:38.807Z,1.40
2023-03-27T06:27:10.721Z,1.15
2023-03-27T06:29:40.402Z,1.65
2023-03-27T06:32:08.812Z,1.58
2023-03-27T06:34:45.221Z,1.30
2023-03-27T06:37:36.910Z,1.63
2023-03-27T06:40:10.099Z,1.40
2023-03-27T06:42:41.186Z,1.60
2023-03-27T06:45:33.190Z,1.40
2023-03-27T06:48:23.814Z,1.80
2023-03-27T06:50:58.223Z,2.47
2023-03-27T06:53:28.324Z,1.90
2023-03-27T06:55:58.779Z,1.50
2023-03-27T06:58:29.613Z,1.55
2023-03-27T07:00:58.084Z,1.88
2023-03-27T07:03:36.198Z,2.13
2023-03-27T07:06:25.819Z,1.63
2023-03-27T07:08:59.648Z,1.60
2023-03-27T07:11:29.507Z,2.03
2023-03-27T07:14:03.691Z,1.52
2023-03-27T07:16:32.569Z,2.15
2023-03-27T07:19:02.664Z,1.65
2023-03-27T07:21:35.790Z,1.80
2023-03-27T07:24:06.048Z,2.28
2023-03-27T07:26:38.160Z,1.70
2023-03-27T07:29:24.189Z,2.45
2023-03-27T07:31:59.526Z,3.05
2023-03-27T07:34:35.780Z,1.92
2023-03-27T07:37:25.788Z,1.63
2023-03-27T07:40:14.328Z,2.03
2023-03-27T07:42:49.169Z,1.85
2023-03-27T07:45:21.641Z,2.13
2023-03-27T07:47:52.501Z,2.22
2023-03-27T07:50:22.412Z,2.08
2023-03-27T07:52:52.474Z,1.98
2023-03-27T07:55:22.358Z,1.50
2023-03-27T07:58:03.591Z,1.80
2023-03-27T08:00:36.309Z,1.20
2023-03-27T08:03:14.014Z,1.80
2023-03-27T08:05:57.597Z,1.27
2023-03-27T08:08:29.435Z,1.63
2023-03-27T08:10:59.153Z,1.35
2023-03-27T08:13:31.947Z,1.42
2023-03-27T08:16:06.159Z,1.65
2023-03-27T08:18:34.882Z,1.58
2023-03-27T08:21:05.449Z,1.35
2023-03-27T08:23:37.628Z,1.20
2023-03-27T08:26:26.397Z,1.23
2023-03-27T08:29:00.423Z,2.85
2023-03-27T08:31:31.572Z,1.30
2023-03-27T08:34:02.253Z,1.63
2023-03-27T08:36:41.689Z,1.45
2023-03-27T08:39:11.682Z,1.85
2023-03-27T08:41:54.905Z,1.50
2023-03-27T08:44:31.839Z,1.30
2023-03-27T08:47:05.186Z,1.30
2023-03-27T08:49:43.418Z,1.17
2023-03-27T08:52:33.920Z,1.55
2023-03-27T08:55:15.370Z,1.23
2023-03-27T08:57:51.871Z,1.20
2023-03-27T09:00:27.932Z,1.77
2023-03-27T09:03:14.637Z,1.52
2023-03-27T09:05:46.836Z,1.50
2023-03-27T09:08:28.604Z,2.58
2023-03-27T09:11:04.673Z,1.50
2023-03-27T09:13:44.919Z,1.17
2023-03-27T09:16:21.261Z,0.90
2023-03-27T09:18:57.897Z,0.95
2023-03-27T09:21:36.217Z,0.90
2023-03-27T09:24:21.292Z,0.93
2023-03-27T09:27:18.784Z,0.70
2023-03-27T09:30:05.370Z,0.90
2023-03-27T09:32:46.956Z,0.80
2023-03-27T09:35:16.472Z,0.82
2023-03-27T09:37:44.982Z,0.82
2023-03-27T09:40:23.419Z,0.90
2023-03-27T09:42:55.615Z,1.00
2023-03-27T09:45:26.022Z,1.00
2023-03-27T09:48:04.011Z,0.80
2023-03-27T09:50:44.484Z,1.13
2023-03-27T09:53:22.932Z,0.90
2023-03-27T09:56:03.701Z,0.70
2023-03-27T09:58:40.738Z,0.80
2023-03-27T10:01:16.567Z,0.70
2023-03-27T10:03:52.441Z,0.77
2023-03-27T10:06:31.671Z,0.77
2023-03-27T10:09:20.869Z,1.10
2023-03-27T10:11:50.856Z,0.80
2023-03-27T10:14:29.143Z,0.88
2023-03-27T10:16:58.352Z,0.82
2023-03-27T10:19:30.439Z,1.00
2023-03-27T10:22:04.373Z,1.08
2023-03-27T10:24:34.857Z,1.20
2023-03-27T10:27:12.080Z,0.98
2023-03-27T10:29:53.061Z,0.70
2023-03-27T10:32:46.755Z,1.00
2023-03-27T10:35:37.703Z,0.77
2023-03-27T10:38:15.255Z,0.68
2023-03-27T10:40:53.031Z,0.82
2023-03-27T10:43:41.170Z,0.70
2023-03-27T10:46:13.431Z,0.80
2023-03-27T10:48:53.018Z,0.90
2023-03-27T10:51:45.527Z,0.73
2023-03-27T10:54:34.109Z,0.82
2023-03-27T10:57:06.104Z,0.90
2023-03-27T10:59:42.828Z,0.90
2023-03-27T11:02:24.024Z,0.80
2023-03-27T11:04:59.982Z,0.82
2023-03-27T11:07:33.978Z,0.98
2023-03-27T11:10:13.201Z,0.75
2023-03-27T11:12:45.326Z,0.93
2023-03-27T11:15:19.755Z,1.00
2023-03-27T11:17:55.455Z,4.70
2023-03-27T11:20:37.501Z,4.68
2023-03-27T11:23:24.587Z,3.08
2023-03-27T11:26:16.721Z,8.65
2023-03-27T11:28:53.309Z,1.02
2023-03-27T11:31:35.425Z,0.90
2023-03-27T11:34:07.367Z,1.15
2023-03-27T11:36:48.330Z,0.98
2023-03-27T11:39:39.760Z,1.25
2023-03-27T11:42:16.180Z,0.82
2023-03-27T11:44:44.785Z,1.17
2023-03-27T11:47:50.963Z,0.85
2023-03-27T11:50:27.611Z,0.65
2023-03-27T11:53:14.268Z,0.65
2023-03-27T11:56:12.440Z,0.80
2023-03-27T11:59:00.698Z,0.70
2023-03-27T12:01:37.399Z,0.80
2023-03-27T12:04:29.527Z,0.70
2023-03-27T12:07:26.366Z,1.00
2023-03-27T12:10:16.968Z,0.90
2023-03-27T12:13:42.027Z,0.80
2023-03-27T12:16:43.800Z,0.80
2023-03-27T12:19:38.232Z,0.80
2023-03-27T12:22:29.987Z,0.70
2023-03-27T12:25:27.133Z,0.60
2023-03-27T12:28:22.543Z,0.75
2023-03-27T12:31:03.945Z,0.80
2023-03-27T12:33:46.448Z,0.70
2023-03-27T12:36:17.832Z,0.80
2023-03-27T12:38:47.552Z,0.80
2023-03-27T12:41:26.323Z,0.70
2023-03-27T12:44:06.260Z,0.70
2023-03-27T12:46:40.708Z,0.70
2023-03-27T12:49:46.995Z,1.00
2023-03-27T12:52:22.018Z,0.63
2023-03-27T12:55:09.354Z,0.88
2023-03-27T12:58:00.535Z,0.70
2023-03-27T13:00:58.376Z,0.70
2023-03-27T13:03:57.665Z,0.50
2023-03-27T13:06:36.372Z,0.40
2023-03-27T13:09:32.858Z,0.32
2023-03-27T13:12:19.493Z,0.60
2023-03-27T13:15:07.313Z,0.50
2023-03-27T13:17:52.855Z,0.40
2023-03-27T13:20:30.413Z,0.50
2023-03-27T13:23:10.337Z,0.60
2023-03-27T13:25:58.571Z,0.65
2023-03-27T13:28:36.460Z,0.80
2023-03-27T13:31:16.592Z,0.60
2023-03-27T13:34:12.002Z,0.63
2023-03-27T13:36:43.129Z,0.95
2023-03-27T13:39:22.364Z,0.90
2023-03-27T13:42:03.937Z,1.20
2023-03-27T13:44:46.823Z,0.90
2023-03-27T13:47:55.228Z,1.13
2023-03-27T13:50:53.180Z,0.70
2023-03-27T13:53:45.859Z,0.95
2023-03-27T13:56:41.053Z,0.70
2023-03-27T13:59:40.618Z,0.80
2023-03-27T14:02:55.009Z,0.90
2023-03-27T14:05:45.394Z,0.82
2023-03-27T14:08:30.901Z,0.70
2023-03-27T14:11:37.966Z,0.98
2023-03-27T14:14:41.775Z,0.85
2023-03-27T14:17:25.517Z,1.77
2023-03-27T14:20:13.139Z,1.00
2023-03-27T14:22:53.515Z,1.10
2023-03-27T14:25:31.159Z,0.60
2023-03-27T14:28:31.562Z,0.52
2023-03-27T14:31:05.943Z,0.95
2023-03-27T14:34:01.040Z,0.90
2023-03-27T14:36:33.912Z,0.80
2023-03-27T14:39:14.617Z,1.00
2023-03-27T14:41:47.673Z,0.70
2023-03-27T14:44:18.757Z,0.60
2023-03-27T14:46:48.817Z,0.80
2023-03-27T14:49:20.788Z,0.70
2023-03-27T14:52:01.257Z,0.57
2023-03-27T14:54:55.596Z,0.68
2023-03-27T14:57:29.513Z,0.70
2023-03-27T15:00:06.552Z,0.60
2023-03-27T15:02:39.247Z,0.80
2023-03-27T15:05:13.105Z,0.68
2023-03-27T15:07:48.733Z,0.50
2023-03-27T15:10:38.251Z,0.90
2023-03-27T15:13:27.250Z,0.90
2023-03-27T15:15:59.715Z,0.80
2023-03-27T15:18:36.084Z,0.60
2023-03-27T15:21:07.936Z,0.85
2023-03-27T15:23:41.076Z,0.88
2023-03-27T15:26:15.175Z,0.90
2023-03-27T15:28:49.924Z,1.08
2023-03-27T15:31:18.679Z,0.60
2023-03-27T15:34:02.064Z,0.50
2023-03-27T15:36:33.062Z,0.43
2023-03-27T15:39:03.983Z,0.32
2023-03-27T15:41:42.964Z,0.40
2023-03-27T15:44:13.929Z,0.50
2023-03-27T15:46:54.109Z,0.40
2023-03-27T15:49:29.613Z,0.38
2023-03-27T15:51:59.526Z,0.40
2023-03-27T15:54:31.297Z,0.50
2023-03-27T15:57:09.599Z,0.70
2023-03-27T15:59:52.998Z,0.60
2023-03-27T16:02:24.932Z,0.55
2023-03-27T16:04:55.442Z,0.57
2023-03-27T16:07:27.159Z,0.50
2023-03-27T16:09:58.363Z,0.70
2023-03-27T16:12:33.381Z,0.50
2023-03-27T16:15:05.654Z,0.50
2023-03-27T16:17:41.064Z,0.52
2023-03-27T16:20:35.197Z,0.65
2023-03-27T16:23:04.282Z,0.57
2023-03-27T16:25:32.686Z,0.50
2023-03-27T16:28:02.856Z,0.40
2023-03-27T16:30:34.339Z,0.50
2023-03-27T16:33:03.464Z,0.50
2023-03-27T16:35:32.627Z,0.70
2023-03-27T16:38:01.955Z,0.50
2023-03-27T16:40:30.710Z,0.70
2023-03-27T16:42:58.979Z,0.43
2023-03-27T16:45:28.630Z,0.50
2023-03-27T16:47:57.103Z,0.50
2023-03-27T16:50:29.018Z,0.32
2023-03-27T16:52:57.373Z,0.70
2023-03-27T16:55:25.775Z,0.50
2023-03-27T16:57:55.098Z,0.95
2023-03-27T17:00:24.426Z,0.70
2023-03-27T17:02:54.103Z,0.60
2023-03-27T17:05:22.638Z,0.60
2023-03-27T17:07:51.252Z,0.70
2023-03-27T17:10:19.651Z,1.30
2023-03-27T17:12:47.931Z,0.75
2023-03-27T17:15:16.710Z,0.70
2023-03-27T17:17:45.861Z,0.80
2023-03-27T17:20:16.305Z,1.20
2023-03-27T17:22:45.509Z,0.63
2023-03-27T17:25:14.029Z,0.60
2023-03-27T17:27:42.394Z,1.02
2023-03-27T17:30:11.323Z,1.00
2023-03-27T17:32:39.873Z,1.00
2023-03-27T17:35:08.879Z,1.15
2023-03-27T17:37:38.733Z,1.20
2023-03-27T17:40:09.513Z,0.88
2023-03-27T17:42:38.318Z,0.93
2023-03-27T17:45:07.388Z,1.10
2023-03-27T17:47:36.202Z,1.13
2023-03-27T17:50:05.210Z,1.05
2023-03-27T17:52:33.657Z,1.40
2023-03-27T17:55:03.132Z,1.20
2023-03-27T17:57:32.944Z,1.58
2023-03-27T18:00:01.258Z,2.30
2023-03-27T18:02:29.784Z,1.90
2023-03-27T18:04:58.096Z,0.93
2023-03-27T18:07:27.755Z,0.93
2023-03-27T18:09:55.976Z,0.75
2023-03-27T18:12:25.644Z,1.00
2023-03-27T18:14:53.908Z,1.38
2023-03-27T18:17:22.235Z,1.10
2023-03-27T18:19:50.497Z,0.82
2023-03-27T18:22:18.832Z,0.70
2023-03-27T18:24:47.278Z,0.80
2023-03-27T18:27:16.406Z,1.27
2023-03-27T18:29:45.973Z,1.15
2023-03-27T18:32:14.241Z,1.40
2023-03-27T18:34:42.463Z,1.48
2023-03-27T18:37:10.772Z,1.38
2023-03-27T18:39:39.881Z,1.38
2023-03-27T18:42:08.689Z,1.40
2023-03-27T18:44:39.041Z,1.50
2023-03-27T18:47:10.896Z,1.60
2023-03-27T18:49:39.165Z,1.80
2023-03-27T18:52:07.498Z,1.30
2023-03-27T18:54:37.052Z,1.20
2023-03-27T18:57:05.666Z,1.88
2023-03-27T18:59:35.249Z,1.60
2023-03-27T19:02:03.568Z,1.20
2023-03-27T19:04:33.340Z,1.40
2023-03-27T19:07:02.185Z,1.10
2023-03-27T19:09:41.010Z,1.52
2023-03-27T19:12:10.550Z,1.45
2023-03-27T19:15:02.152Z,1.30
2023-03-27T19:17:54.964Z,1.20
2023-03-27T19:20:43.412Z,1.38
2023-03-27T19:23:23.215Z,1.48
2023-03-27T19:25:53.203Z,1.20
2023-03-27T19:28:21.545Z,1.27
2023-03-27T19:30:50.223Z,1.40
2023-03-27T19:33:18.444Z,1.50
2023-03-27T19:35:52.646Z,1.40
2023-03-27T19:38:21.557Z,1.80
2023-03-27T19:40:49.919Z,1.80
2023-03-27T19:43:18.796Z,2.00
2023-03-27T19:46:04.406Z,2.28
2023-03-27T19:48:41.952Z,2.30
2023-03-27T19:51:19.100Z,2.50
2023-03-27T19:53:51.516Z,2.28
2023-03-27T19:56:22.773Z,2.03
2023-03-27T19:58:51.065Z,2.42
2023-03-27T20:01:20.124Z,2.38
2023-03-27T20:03:48.910Z,2.50
2023-03-27T20:06:19.549Z,2.47
2023-03-27T20:08:47.887Z,2.72
2023-03-27T20:11:17.732Z,2.33
2023-03-27T20:13:55.914Z,2.35
2023-03-27T20:16:26.292Z,2.25
2023-03-27T20:19:04.351Z,2.17
2023-03-27T20:21:36.076Z,2.50
2023-03-27T20:24:09.596Z,2.30
2023-03-27T20:26:41.741Z,2.30
2023-03-27T20:29:19.229Z,2.45
2023-03-27T20:31:47.995Z,2.20
2023-03-27T20:34:19.606Z,2.33
2023-03-27T20:36:53.401Z,2.15
2023-03-27T20:39:44.523Z,2.03
2023-03-27T20:42:15.895Z,1.73
2023-03-27T20:44:45.047Z,2.15
2023-03-27T20:47:14.899Z,2.58
2023-03-27T20:49:46.702Z,2.03
2023-03-27T20:52:18.228Z,2.33
2023-03-27T20:54:47.408Z,2.03
2023-03-27T20:57:17.714Z,2.17
2023-03-27T20:59:48.160Z,2.50
2023-03-27T21:02:18.811Z,2.10
2023-03-27T21:04:48.365Z,2.30
2023-03-27T21:07:18.140Z,2.35
2023-03-27T21:09:47.857Z,2.75
2023-03-27T21:12:16.208Z,2.60
2023-03-27T21:14:44.427Z,2.42
2023-03-27T21:17:13.804Z,2.40
2023-03-27T21:19:42.048Z,2.67
2023-03-27T21:22:10.663Z,2.80
2023-03-27T21:24:42.055Z,2.58
2023-03-27T21:27:10.534Z,2.70
2023-03-27T21:29:38.871Z,2.30
2023-03-27T21:32:07.943Z,2.45
2023-03-27T21:34:36.397Z,2.72
2023-03-27T21:37:04.794Z,2.13
2023-03-27T21:39:33.109Z,2.15
2023-03-27T21:42:02.837Z,2.15
2023-03-27T21:44:31.090Z,2.00
2023-03-27T21:46:59.519Z,2.10
2023-03-27T21:49:27.763Z,2.55
2023-03-27T21:51:56.149Z,2.00
2023-03-27T21:54:24.553Z,2.10
2023-03-27T21:56:53.002Z,2.17
2023-03-27T21:59:22.488Z,2.28
2023-03-27T22:01:50.921Z,2.10
2023-03-27T22:04:21.239Z,2.20
2023-03-27T22:06:50.788Z,1.85
2023-03-27T22:09:19.403Z,2.25
2023-03-27T22:11:47.784Z,1.90
2023-03-27T22:14:16.241Z,2.92
2023-03-27T22:16:46.084Z,2.10
2023-03-27T22:19:14.355Z,2.33
2023-03-27T22:21:42.811Z,2.35
2023-03-27T22:24:11.204Z,2.55
2023-03-27T22:26:40.726Z,2.22
2023-03-27T22:29:10.268Z,2.47
2023-03-27T22:31:38.854Z,2.42
2023-03-27T22:34:08.500Z,2.50
2023-03-27T22:36:36.808Z,2.90
2023-03-27T22:39:05.481Z,2.60
2023-03-27T22:41:33.884Z,3.00
2023-03-27T22:44:02.912Z,2.70
2023-03-27T22:46:31.290Z,2.85
2023-03-27T22:48:59.851Z,3.58
2023-03-27T22:51:31.376Z,2.65
2023-03-27T22:54:00.085Z,2.88
2023-03-27T22:56:28.376Z,3.17
2023-03-27T22:58:57.000Z,3.33
2023-03-27T23:01:25.288Z,3.58
2023-03-27T23:03:53.722Z,3.40
2023-03-27T23:06:24.100Z,3.15
2023-03-27T23:08:54.172Z,3.67
2023-03-27T23:11:22.742Z,3.17
2023-03-27T23:13:50.997Z,3.65
2023-03-27T23:16:19.733Z,3.25
2023-03-27T23:18:47.998Z,3.22
2023-03-27T23:21:17.729Z,3.88
2023-03-27T23:23:46.318Z,3.25
2023-03-27T23:26:17.939Z,2.85
2023-03-27T23:28:46.254Z,2.95
2023-03-27T23:31:16.342Z,2.67
2023-03-27T23:33:47.503Z,2.70
2023-03-27T23:36:17.738Z,2.78
2023-03-27T23:38:46.173Z,2.88
2023-03-27T23:41:17.149Z,2.50
2023-03-27T23:43:45.909Z,2.60
2023-03-27T23:46:14.731Z,2.45
2023-03-27T23:48:44.664Z,2.42
2023-03-27T23:51:14.760Z,2.92
2023-03-27T23:53:43.252Z,2.45
2023-03-27T23:56:11.769Z,3.08
2023-03-27T23:58:41.429Z,2.83
